Time;durP1;ratioP1;P1;durP2;ratioP2;P2;SDS_P1;SDS_P2;PMS_P1;PMS_P2;Temp;Humidity;BMP_temperature;BMP_pressure;BME280_temperature;BME280_humidity;BME280_pressure;Samples;Min_cycle;Max_cycle;Signal;HPM_P1;HPM_P2
2020/12/10 00:00:38;;;;;;;67.25;30.82;;;;;;;-0.06;73.55;100669.81;1791918;78;27502;-78
2020/12/10 00:03:05;;;;;;;66.12;28.10;;;;;;;-0.04;73.40;100671.84;1809530;78;25867;-78
2020/12/10 00:05:33;;;;;;;63.35;28.60;;;;;;;-0.04;73.30;100668.36;1763307;77;25787;-78
2020/12/10 00:08:00;;;;;;;67.60;30.85;;;;;;;-0.07;73.36;100658.94;1784929;78;25809;-78
2020/12/10 00:10:28;;;;;;;63.85;27.25;;;;;;;-0.07;73.25;100652.83;1790922;78;26181;-78
2020/12/10 00:12:56;;;;;;;66.75;30.95;;;;;;;-0.08;73.31;100659.03;1787476;78;27975;-78
2020/12/10 00:15:24;;;;;;;70.55;30.88;;;;;;;-0.08;73.42;100665.14;1815828;78;25494;-78
2020/12/10 00:17:52;;;;;;;60.50;28.35;;;;;;;-0.07;73.31;100661.56;1763234;78;25754;-78
2020/12/10 00:20:19;;;;;;;61.50;29.90;;;;;;;-0.07;73.42;100657.62;1785726;78;25765;-78
2020/12/10 00:22:46;;;;;;;63.80;30.43;;;;;;;-0.07;73.31;100659.41;1784492;78;25652;-79
2020/12/10 00:25:14;;;;;;;61.55;27.67;;;;;;;-0.10;73.38;100653.89;1814581;78;27572;-78
2020/12/10 00:27:41;;;;;;;58.65;27.25;;;;;;;-0.10;73.38;100647.31;1748731;78;25766;-78
2020/12/10 00:30:10;;;;;;;71.15;32.95;;;;;;;-0.08;73.40;100642.77;1801744;78;26406;-78
2020/12/10 00:32:39;;;;;;;71.33;30.15;;;;;;;-0.09;73.44;100643.73;1800081;78;26232;-78
2020/12/10 00:35:09;;;;;;;58.00;27.55;;;;;;;-0.06;73.49;100642.64;1811793;78;25766;-78
2020/12/10 00:37:37;;;;;;;59.65;29.12;;;;;;;-0.05;73.32;100648.27;1760975;78;28526;-78
2020/12/10 00:40:08;;;;;;;67.00;31.40;;;;;;;-0.06;73.46;100643.95;1759833;80;25920;-78
2020/12/10 00:42:36;;;;;;;60.90;30.82;;;;;;;-0.09;73.34;100638.94;1787673;78;25820;-78
2020/12/10 00:45:04;;;;;;;66.53;30.55;;;;;;;-0.09;73.42;100630.57;1815436;78;25605;-78
2020/12/10 00:47:32;;;;;;;49.80;21.57;;;;;;;-0.09;73.52;100631.89;1756343;78;26124;-78
2020/12/10 00:50:00;;;;;;;61.28;28.62;;;;;;;-0.09;73.46;100628.41;1787228;78;27529;-77
2020/12/10 00:52:29;;;;;;;58.05;29.00;;;;;;;-0.17;73.54;100618.95;1781647;78;25836;-78
2020/12/10 00:54:59;;;;;;;66.42;27.32;;;;;;;-0.11;73.58;100619.29;1814672;78;26356;-78
2020/12/10 00:57:28;;;;;;;59.38;26.73;;;;;;;-0.15;73.40;100612.59;1755940;80;25857;-78
2020/12/10 00:59:55;;;;;;;61.50;28.65;;;;;;;-0.18;73.46;100611.53;1747386;80;25731;-78
2020/12/10 01:02:22;;;;;;;72.92;32.83;;;;;;;-0.20;73.52;100616.55;1756519;79;27331;-78
2020/12/10 01:04:50;;;;;;;57.75;27.15;;;;;;;-0.21;73.65;100614.86;1806678;78;25925;-78
2020/12/10 01:07:17;;;;;;;63.45;30.45;;;;;;;-0.22;73.67;100614.04;1766318;77;25826;-78
2020/12/10 01:09:45;;;;;;;62.05;29.52;;;;;;;-0.26;73.75;100609.97;1788382;78;25709;-77
2020/12/10 01:12:12;;;;;;;75.05;31.57;;;;;;;-0.27;73.92;100609.59;1809142;78;25843;-78
2020/12/10 01:14:40;;;;;;;61.10;27.65;;;;;;;-0.25;74.01;100606.84;1798140;78;27515;-78
2020/12/10 01:17:07;;;;;;;61.53;29.12;;;;;;;-0.26;74.00;100597.28;1763593;78;26692;-78
2020/12/10 01:19:34;;;;;;;50.98;22.98;;;;;;;-0.29;74.07;100601.45;1788499;78;25829;-78
2020/12/10 01:22:02;;;;;;;52.38;27.45;;;;;;;-0.30;74.15;100600.61;1788247;78;26649;-78
2020/12/10 01:24:30;;;;;;;55.95;25.20;;;;;;;-0.36;74.16;100596.29;1757579;78;26084;-78
2020/12/10 01:26:57;;;;;;;51.00;22.25;;;;;;;-0.35;74.25;100593.56;1733397;80;27548;-77
2020/12/10 01:29:24;;;;;;;59.48;26.07;;;;;;;-0.35;74.33;100596.20;1782762;78;25749;-78
2020/12/10 01:31:53;;;;;;;58.48;25.23;;;;;;;-0.35;74.41;100590.93;1785849;78;25597;-78
2020/12/10 01:34:20;;;;;;;61.63;30.00;;;;;;;-0.34;74.36;100586.02;1805530;77;26371;-78
2020/12/10 01:36:48;;;;;;;53.15;24.20;;;;;;;-0.35;74.42;100587.45;1764691;78;25352;-78
2020/12/10 01:39:15;;;;;;;51.35;25.37;;;;;;;-0.35;74.51;100590.09;1791532;78;28466;-78
2020/12/10 01:41:43;;;;;;;59.93;26.65;;;;;;;-0.35;74.52;100581.72;1781673;78;25993;-78
2020/12/10 01:44:13;;;;;;;56.28;26.23;;;;;;;-0.32;74.64;100578.02;1788652;78;25928;-78
2020/12/10 01:46:42;;;;;;;59.15;27.37;;;;;;;-0.31;74.60;100577.89;1765456;78;25862;-78
2020/12/10 01:49:10;;;;;;;44.03;23.05;;;;;;;-0.28;74.60;100578.14;1801720;78;25663;-78
2020/12/10 01:51:38;;;;;;;46.30;22.77;;;;;;;-0.30;74.57;100568.22;1766358;80;27319;-78
2020/12/10 01:54:07;;;;;;;49.40;25.12;;;;;;;-0.32;74.57;100563.55;1815475;78;25827;-78
2020/12/10 01:56:35;;;;;;;58.55;26.73;;;;;;;-0.34;74.63;100564.14;1744194;78;26459;-77
2020/12/10 01:59:05;;;;;;;48.38;22.02;;;;;;;-0.36;74.65;100572.14;1777584;78;26080;-77
2020/12/10 02:01:34;;;;;;;50.03;24.30;;;;;;;-0.37;74.72;100570.48;1783121;79;25741;-78
2020/12/10 02:04:02;;;;;;;51.85;24.40;;;;;;;-0.39;74.69;100561.02;1808493;78;27519;-78
2020/12/10 02:06:30;;;;;;;44.48;20.43;;;;;;;-0.41;74.80;100562.46;1740251;80;25385;-77
2020/12/10 02:08:59;;;;;;;40.48;20.15;;;;;;;-0.43;74.89;100559.11;1778048;79;25831;-78
2020/12/10 02:11:26;;;;;;;42.75;21.35;;;;;;;-0.48;74.99;100553.83;1750661;79;26495;-78
2020/12/10 02:13:53;;;;;;;43.87;19.15;;;;;;;-0.47;75.14;100559.46;1780573;79;26420;-78
2020/12/10 02:16:21;;;;;;;44.33;22.58;;;;;;;-0.45;75.20;100561.50;1768076;78;27663;-78
2020/12/10 02:18:56;;;;;;;36.77;20.37;;;;;;;-0.48;75.35;100558.62;1805894;78;25719;-78
2020/12/10 02:21:24;;;;;;;44.00;20.75;;;;;;;-0.48;75.56;100552.52;1810078;78;26413;-78
2020/12/10 02:23:54;;;;;;;35.55;17.75;;;;;;;-0.46;75.51;100551.91;1748481;80;25739;-78
2020/12/10 02:26:30;;;;;;;43.65;20.52;;;;;;;-0.42;75.49;100546.77;1830719;77;25898;-78
2020/12/10 02:29:02;;;;;;;30.10;16.27;;;;;;;-0.48;75.59;100546.78;1797669;78;26134;-78
2020/12/10 02:31:32;;;;;;;39.73;18.85;;;;;;;-0.51;75.64;100550.95;1724631;80;27532;-78
2020/12/10 02:34:02;;;;;;;33.83;18.57;;;;;;;-0.52;75.83;100540.08;1711234;83;25810;-78
2020/12/10 02:36:31;;;;;;;37.23;20.07;;;;;;;-0.50;75.90;100539.48;1701940;81;25884;-78
2020/12/10 02:38:59;;;;;;;39.90;19.57;;;;;;;-0.47;76.00;100535.78;1748578;81;25755;-78
2020/12/10 02:41:26;;;;;;;30.97;16.60;;;;;;;-0.53;76.44;100513.39;1698473;81;26402;-78
2020/12/10 02:43:54;;;;;;;38.98;19.25;;;;;;;-0.53;76.44;100513.39;1707551;82;28571;-77
2020/12/10 02:46:21;;;;;;;36.58;17.70;;;;;;;-0.55;76.36;100510.05;1741768;81;25818;-78
2020/12/10 02:48:49;;;;;;;38.92;19.60;;;;;;;-0.48;76.42;100515.67;1747434;81;26452;-78
2020/12/10 02:51:17;;;;;;;45.10;22.50;;;;;;;-0.48;76.80;100512.58;1667664;81;26449;-78
2020/12/10 02:53:44;;;;;;;36.40;18.90;;;;;;;-0.48;76.78;100513.89;1682127;81;26017;-77
2020/12/10 02:56:14;;;;;;;41.85;22.60;;;;;;;-0.47;76.64;100506.34;1766568;80;27130;-77
2020/12/10 02:58:42;;;;;;;37.63;18.35;;;;;;;-0.44;76.72;100511.84;1746609;81;25817;-78
2020/12/10 03:01:10;;;;;;;34.67;19.62;;;;;;;-0.44;76.75;100500.85;1684568;81;25835;-77
2020/12/10 03:03:38;;;;;;;37.38;19.85;;;;;;;-0.39;76.76;100499.18;1706096;81;26193;-78
2020/12/10 03:06:08;;;;;;;34.30;16.65;;;;;;;-0.39;76.76;100499.18;1731444;81;25993;-77
2020/12/10 03:08:40;;;;;;;34.85;18.07;;;;;;;-0.37;76.95;100492.84;1752060;81;28368;-78
2020/12/10 03:11:08;;;;;;;33.42;17.92;;;;;;;-0.37;76.89;100492.00;1702434;81;25847;-78
2020/12/10 03:13:35;;;;;;;41.05;19.12;;;;;;;-0.37;77.06;100488.06;1727941;81;25866;-78
2020/12/10 03:16:03;;;;;;;35.92;20.85;;;;;;;-0.37;77.06;100488.06;1727602;81;25850;-78
2020/12/10 03:18:30;;;;;;;32.60;18.30;;;;;;;-0.34;77.21;100488.64;1726135;81;25835;-78
2020/12/10 03:20:58;;;;;;;29.85;16.12;;;;;;;-0.43;77.13;100472.28;1718184;81;27532;-77
2020/12/10 03:23:25;;;;;;;30.32;15.88;;;;;;;-0.35;77.22;100484.83;1725197;81;25798;-78
2020/12/10 03:25:53;;;;;;;35.30;16.85;;;;;;;-0.34;77.34;100478.12;1707925;82;26475;-77
2020/12/10 03:28:20;;;;;;;27.90;14.00;;;;;;;-0.29;77.31;100480.39;1720654;82;25820;-77
2020/12/10 03:30:47;;;;;;;38.67;17.80;;;;;;;-0.30;77.24;100475.59;1729810;80;26126;-78
2020/12/10 03:33:15;;;;;;;26.68;14.38;;;;;;;-0.30;77.24;100475.59;1737070;81;27531;-78
2020/12/10 03:35:42;;;;;;;34.55;17.82;;;;;;;-0.30;77.35;100470.34;1688462;81;25858;-78
2020/12/10 03:38:10;;;;;;;33.23;18.05;;;;;;;-0.31;77.48;100448.09;1750171;81;26441;-78
2020/12/10 03:40:37;;;;;;;30.48;16.48;;;;;;;-0.26;77.35;100462.58;1688868;81;25833;-77
2020/12/10 03:43:05;;;;;;;29.70;15.58;;;;;;;-0.30;77.40;100444.02;1713122;81;25829;-78
2020/12/10 03:45:34;;;;;;;34.18;16.97;;;;;;;-0.27;77.52;100447.73;1754332;81;28051;-78
2020/12/10 03:48:01;;;;;;;40.63;20.37;;;;;;;-0.24;77.54;100455.88;1752459;80;25802;-78
2020/12/10 03:50:28;;;;;;;34.90;18.75;;;;;;;-0.26;77.67;100457.79;1708950;81;25992;-78
2020/12/10 03:52:56;;;;;;;44.60;21.17;;;;;;;-0.26;77.70;100458.64;1716299;81;25856;-78
2020/12/10 03:55:23;;;;;;;30.90;17.75;;;;;;;-0.25;77.75;100456.34;1750201;81;25849;-78
2020/12/10 03:57:51;;;;;;;34.48;16.87;;;;;;;-0.24;77.81;100455.88;1753751;81;28445;-78
2020/12/10 04:00:20;;;;;;;28.70;15.45;;;;;;;-0.26;77.81;100457.32;1709299;80;25848;-78
2020/12/10 04:02:47;;;;;;;31.77;17.05;;;;;;;-0.27;77.99;100445.58;1733490;81;25819;-78
2020/12/10 04:05:14;;;;;;;36.68;18.50;;;;;;;-0.28;78.01;100451.81;1752312;81;26442;-78
2020/12/10 04:07:42;;;;;;;44.45;19.55;;;;;;;-0.32;78.09;100435.41;1748444;81;26523;-78
2020/12/10 04:10:09;;;;;;;70.10;31.48;;;;;;;-0.26;78.12;100441.53;1695192;81;27633;-78
2020/12/10 04:12:37;;;;;;;53.92;27.25;;;;;;;-0.27;78.06;100435.89;1712106;81;25865;-78
2020/12/10 04:15:04;;;;;;;48.40;23.20;;;;;;;-0.18;78.16;100446.17;1740006;81;25832;-77
2020/12/10 04:17:31;;;;;;;30.80;16.35;;;;;;;-0.19;78.20;100440.06;1759005;80;26503;-78
2020/12/10 04:19:59;;;;;;;34.03;17.57;;;;;;;-0.20;78.28;100439.72;1705775;81;26133;-77
2020/12/10 04:22:26;;;;;;;32.85;16.25;;;;;;;-0.21;77.96;100442.45;1712529;81;27720;-78
2020/12/10 04:24:53;;;;;;;28.50;15.28;;;;;;;-0.21;77.99;100440.66;1705232;80;26119;-77
2020/12/10 04:27:21;;;;;;;34.73;18.25;;;;;;;-0.19;77.98;100435.27;1791213;79;25959;-77
2020/12/10 04:29:48;;;;;;;39.65;20.60;;;;;;;-0.17;78.01;100436.82;1721000;79;25916;-78
2020/12/10 04:32:15;;;;;;;39.95;19.40;;;;;;;-0.20;78.06;100425.24;1747218;79;25806;-78
2020/12/10 04:34:43;;;;;;;32.85;19.82;;;;;;;-0.13;78.01;100434.30;1767367;79;27308;-78
2020/12/10 04:37:10;;;;;;;39.85;18.80;;;;;;;-0.14;78.09;100431.33;1789231;78;26595;-78
2020/12/10 04:39:37;;;;;;;29.70;14.93;;;;;;;-0.13;77.96;100424.27;1720733;79;25904;-78
2020/12/10 04:42:08;;;;;;;33.10;17.20;;;;;;;-0.14;77.97;100426.53;1742792;79;25716;-77
2020/12/10 04:44:34;;;;;;;39.05;18.73;;;;;;;-0.18;77.96;100423.80;1770515;79;25696;-78
2020/12/10 04:47:02;;;;;;;37.45;17.90;;;;;;;-0.20;78.00;100431.82;1771628;79;27547;-78
2020/12/10 04:49:31;;;;;;;30.10;16.55;;;;;;;-0.25;78.02;100424.77;1727405;79;25910;-77
2020/12/10 04:51:58;;;;;;;43.00;18.65;;;;;;;-0.19;77.95;100430.00;1750113;79;25806;-78
2020/12/10 04:54:27;;;;;;;36.58;17.62;;;;;;;-0.21;77.91;100431.92;1747110;79;26212;-77
2020/12/10 04:56:54;;;;;;;35.52;15.83;;;;;;;-0.23;78.05;100427.27;1785817;79;25831;-77
2020/12/10 04:59:21;;;;;;;42.88;19.42;;;;;;;-0.27;78.06;100429.78;1747398;79;28592;-77
2020/12/10 05:01:49;;;;;;;38.23;18.90;;;;;;;-0.30;78.05;100436.13;1775073;79;26336;-78
2020/12/10 05:04:16;;;;;;;37.78;18.32;;;;;;;-0.31;78.07;100432.30;1745823;79;25810;-78
2020/12/10 05:06:51;;;;;;;43.85;20.08;;;;;;;-0.31;78.09;100427.89;1769562;79;26069;-78
2020/12/10 05:09:19;;;;;;;35.92;16.93;;;;;;;-0.31;78.10;100425.25;1724075;79;25816;-78
2020/12/10 05:11:47;;;;;;;40.45;20.20;;;;;;;-0.31;78.23;100417.83;1794650;79;28154;-78
2020/12/10 05:14:14;;;;;;;39.70;18.77;;;;;;;-0.33;78.13;100423.23;1734935;79;25864;-77
2020/12/10 05:16:42;;;;;;;42.13;21.00;;;;;;;-0.31;78.12;100423.94;1786141;79;25781;-78
2020/12/10 05:19:20;;;;;;;38.73;16.40;;;;;;;-0.31;78.17;100413.41;1746835;79;25868;-78
2020/12/10 05:22:06;;;;;;;36.60;18.20;;;;;;;-0.36;78.20;100401.56;1774425;79;25772;-78
2020/12/10 05:24:35;;;;;;;40.92;19.73;;;;;;;-0.30;78.15;100414.26;1771709;79;27326;-78
2020/12/10 05:27:17;;;;;;;42.80;22.32;;;;;;;-0.30;78.18;100416.89;1800143;78;26464;-78
2020/12/10 05:29:45;;;;;;;45.38;19.65;;;;;;;-0.28;78.32;100413.66;1768984;79;25809;-78
2020/12/10 05:32:42;;;;;;;43.10;21.37;;;;;;;-0.26;78.24;100407.78;1749819;80;26169;-78
2020/12/10 05:35:26;;;;;;;40.88;19.37;;;;;;;-0.23;78.18;100406.20;1774571;78;26517;-77
2020/12/10 05:37:54;;;;;;;43.13;19.57;;;;;;;-0.26;78.14;100411.27;1799547;78;28414;-78
2020/12/10 05:40:22;;;;;;;45.83;21.07;;;;;;;-0.26;78.19;100405.16;1751888;78;26000;-80
2020/12/10 05:42:51;;;;;;;42.53;18.32;;;;;;;-0.28;78.05;100407.89;1775038;78;25871;-78
2020/12/10 05:45:22;;;;;;;34.58;16.85;;;;;;;-0.27;78.11;100399.52;1777013;78;25800;-78
2020/12/10 05:47:56;;;;;;;44.40;19.02;;;;;;;-0.26;78.15;100406.47;1803226;78;26106;-78
2020/12/10 05:50:34;;;;;;;41.50;18.27;;;;;;;-0.24;78.02;100405.39;1834457;77;25744;-77
2020/12/10 05:53:10;;;;;;;43.28;21.48;;;;;;;-0.32;78.01;100400.39;1803729;78;25853;-77
2020/12/10 05:55:45;;;;;;;36.35;15.35;;;;;;;-0.32;78.01;100393.81;1784038;78;27603;-78
2020/12/10 05:58:12;;;;;;;46.50;20.43;;;;;;;-0.32;78.06;100398.56;1730590;80;26438;-79
2020/12/10 06:00:40;;;;;;;46.90;21.40;;;;;;;-0.32;78.05;100409.09;1699525;82;25913;-78
2020/12/10 06:03:11;;;;;;;50.92;20.90;;;;;;;-0.30;78.01;100398.47;1712033;82;25921;-78
2020/12/10 06:05:39;;;;;;;53.13;22.45;;;;;;;-0.31;77.95;100405.98;1704721;82;25783;-78
2020/12/10 06:08:09;;;;;;;55.55;21.65;;;;;;;-0.34;78.00;100403.63;1705359;83;27542;-78
2020/12/10 06:10:42;;;;;;;45.33;18.92;;;;;;;-0.32;77.99;100398.56;1696666;82;25851;-78
2020/12/10 06:13:12;;;;;;;54.35;22.60;;;;;;;-0.31;77.87;100401.57;1689477;83;25841;-78
2020/12/10 06:15:40;;;;;;;50.55;21.55;;;;;;;-0.32;77.93;100390.67;1705510;82;26521;-79
2020/12/10 06:18:15;;;;;;;48.08;21.75;;;;;;;-0.37;77.87;100399.44;1674199;82;25771;-77
2020/12/10 06:20:46;;;;;;;49.75;21.12;;;;;;;-0.38;78.02;100401.69;1695559;82;28076;-77
2020/12/10 06:23:31;;;;;;;;;;;;;;;-0.35;78.10;100397.98;1710578;82;25703;-77
2020/12/10 06:26:02;;;;;;;53.15;23.42;;;;;;;-0.33;78.07;100406.59;1714124;82;25433;-77
2020/12/10 06:28:37;;;;;;;47.03;22.58;;;;;;;-0.28;78.11;100399.18;1827846;77;25491;-78
2020/12/10 06:31:10;;;;;;;42.88;20.90;;;;;;;-0.34;78.03;100403.12;1797316;78;25780;-77
2020/12/10 06:33:46;;;;;;;48.50;20.37;;;;;;;-0.35;78.01;100398.83;1735192;80;28438;-78
2020/12/10 06:36:25;;;;;;;40.88;18.85;;;;;;;-0.36;77.91;100410.30;1742926;80;25815;-77
2020/12/10 06:38:57;;;;;;;51.40;22.05;;;;;;;-0.40;77.85;100405.40;1736491;80;25736;-77
2020/12/10 06:41:25;;;;;;;50.17;21.12;;;;;;;-0.43;77.82;100403.03;1767061;80;25950;-78
2020/12/10 06:43:53;;;;;;;48.52;21.65;;;;;;;-0.46;77.76;100402.78;1745277;80;25827;-78
2020/12/10 06:46:21;;;;;;;52.00;24.60;;;;;;;-0.50;77.81;100405.31;1743509;80;28646;-78
2020/12/10 06:48:50;;;;;;;66.28;28.32;;;;;;;-0.49;77.90;100406.16;1734227;80;26442;-77
2020/12/10 06:51:23;;;;;;;55.98;23.77;;;;;;;-0.49;77.91;100402.20;1760262;80;25755;-78
2020/12/10 06:54:08;;;;;;;56.88;23.30;;;;;;;-0.47;77.95;100399.78;1702448;80;25892;-78
2020/12/10 06:59:44;;;;;;;56.13;25.90;;;;;;;-0.39;77.83;100393.45;1827187;77;25707;-78
2020/12/10 07:02:15;;;;;;;59.70;27.20;;;;;;;-0.47;77.86;100400.29;1800165;78;25819;-78
2020/12/10 07:07:25;;;;;;;56.50;25.48;;;;;;;-0.45;77.89;100387.34;1812881;77;25840;-77
2020/12/10 07:10:01;;;;;;;60.95;25.55;;;;;;;-0.51;77.95;100383.89;1769601;80;25815;-78
2020/12/10 07:12:40;;;;;;;59.75;24.65;;;;;;;-0.47;77.96;100388.45;1752585;80;26509;-78
2020/12/10 07:15:23;;;;;;;49.23;23.40;;;;;;;-0.46;77.99;100384.38;1751852;80;25855;-78
2020/12/10 07:17:50;;;;;;;64.75;28.02;;;;;;;-0.45;77.98;100377.33;1750424;80;25720;-78
2020/12/10 07:20:20;;;;;;;58.75;24.98;;;;;;;-0.48;77.95;100380.19;1772610;80;25839;-78
2020/12/10 07:22:47;;;;;;;54.45;24.57;;;;;;;-0.49;77.91;100377.22;1749034;80;26115;-78
2020/12/10 07:25:17;;;;;;;58.08;25.77;;;;;;;-0.50;78.01;100371.11;1727157;80;28472;-78
2020/12/10 07:27:45;;;;;;;58.52;26.48;;;;;;;-0.50;77.94;100368.95;1746428;80;25823;-78
2020/12/10 07:30:15;;;;;;;48.10;22.65;;;;;;;-0.52;78.05;100375.66;1774670;80;25695;-78
2020/12/10 07:32:45;;;;;;;55.75;23.62;;;;;;;-0.51;77.99;100371.23;1705342;80;25858;-78
2020/12/10 07:35:13;;;;;;;61.95;25.08;;;;;;;-0.50;78.05;100368.48;1746546;80;25835;-78
2020/12/10 07:37:41;;;;;;;53.83;23.65;;;;;;;-0.49;78.00;100369.32;1773472;80;28516;-78
2020/12/10 07:40:18;;;;;;;61.48;27.40;;;;;;;-0.47;78.01;100370.84;1769557;80;25766;-78
2020/12/10 07:42:48;;;;;;;63.28;26.70;;;;;;;-0.44;78.06;100367.14;1756872;80;25918;-78
2020/12/10 07:45:18;;;;;;;51.23;23.22;;;;;;;-0.42;77.96;100371.33;1738874;81;25848;-78
2020/12/10 07:47:58;;;;;;;51.30;23.52;;;;;;;-0.41;77.95;100365.13;1727544;80;25921;-78
2020/12/10 07:50:26;;;;;;;44.60;21.35;;;;;;;-0.40;77.90;100368.09;1772089;79;28477;-78
2020/12/10 07:52:58;;;;;;;;;;;;;;;-0.42;77.93;100362.59;1743504;80;25876;-78
2020/12/10 07:55:31;;;;;;;58.45;25.75;;;;;;;-0.43;77.99;100368.36;1754516;80;26322;-78
2020/12/10 07:58:16;;;;;;;50.78;23.47;;;;;;;-0.46;78.08;100371.22;1743566;81;25924;-77
2020/12/10 08:00:47;;;;;;;51.00;24.00;;;;;;;-0.48;78.02;100363.92;1745872;80;26369;-76
2020/12/10 08:03:28;;;;;;;53.35;25.20;;;;;;;-0.48;78.00;100357.83;1768903;80;27532;-78
2020/12/10 08:06:10;;;;;;;54.05;22.48;;;;;;;-0.47;78.14;100359.51;1765065;80;25865;-78
2020/12/10 08:08:43;;;;;;;50.65;24.67;;;;;;;-0.49;77.98;100351.72;1744962;80;25877;-78
2020/12/10 08:11:20;;;;;;;59.18;28.35;;;;;;;-0.42;78.07;100350.28;1831893;77;25706;-78
2020/12/10 08:14:08;;;;;;;54.30;25.17;;;;;;;-0.50;78.00;100343.48;1796115;78;25850;-78
2020/12/10 08:16:46;;;;;;;59.05;23.90;;;;;;;-0.45;78.10;100340.48;1777611;78;28492;-77
2020/12/10 08:19:18;;;;;;;62.00;27.67;;;;;;;-0.39;78.21;100347.41;1744599;80;26253;-78
2020/12/10 08:21:51;;;;;;;56.98;24.63;;;;;;;-0.36;77.92;100344.98;1742776;80;26130;-78
2020/12/10 08:24:41;;;;;;;56.33;27.20;;;;;;;-0.37;78.24;100338.91;1771524;80;25849;-78
2020/12/10 08:27:18;;;;;;;48.98;22.67;;;;;;;-0.36;77.93;100345.83;1744365;80;26401;-78
2020/12/10 08:30:01;;;;;;;54.53;25.60;;;;;;;-0.35;77.84;100347.98;1783484;80;28899;-77
2020/12/10 08:32:29;;;;;;;43.08;20.15;;;;;;;-0.36;77.77;100344.52;1783809;80;26475;-77
2020/12/10 08:35:08;;;;;;;64.82;32.67;;;;;;;-0.37;77.78;100345.96;1680386;83;26417;-78
2020/12/10 08:37:39;;;;;;;39.98;19.80;;;;;;;-0.41;77.75;100339.28;1663706;82;26390;-77
2020/12/10 08:40:09;;;;;;;51.70;27.10;;;;;;;-0.44;77.81;100349.56;1728258;81;25813;-77
2020/12/10 08:42:37;;;;;;;118.62;64.65;;;;;;;-0.43;77.94;100355.20;1722044;81;27085;-77
2020/12/10 08:45:09;;;;;;;59.27;26.30;;;;;;;-0.45;77.90;100347.06;1740629;81;25747;-77
2020/12/10 08:47:40;;;;;;;60.60;34.48;;;;;;;-0.45;77.90;100347.06;1690615;81;25812;-77
2020/12/10 08:50:23;;;;;;;43.13;22.20;;;;;;;-0.42;77.88;100348.96;1716261;81;25870;-78
2020/12/10 08:53:07;;;;;;;61.75;31.62;;;;;;;-0.42;77.91;100335.80;1738194;81;25728;-77
2020/12/10 08:55:46;;;;;;;62.78;32.10;;;;;;;-0.42;77.93;100340.22;1735809;81;27638;-78
2020/12/10 08:58:21;;;;;;;111.45;62.93;;;;;;;-0.42;78.13;100342.38;1731200;81;26005;-78
2020/12/10 09:00:51;;;;;;;66.00;34.55;;;;;;;-0.40;78.09;100341.78;1702795;83;26477;-77
2020/12/10 09:03:21;;;;;;;;;;;;;;;-0.37;77.95;100338.91;1688857;82;25934;-77
2020/12/10 09:05:50;;;;;;;59.08;29.18;;;;;;;-0.35;77.97;100332.20;1708496;82;25859;-78
2020/12/10 09:08:21;;;;;;;56.70;27.27;;;;;;;-0.36;77.99;100327.88;1715240;82;27560;-77
2020/12/10 09:10:48;;;;;;;76.72;43.02;;;;;;;-0.34;77.99;100332.06;1701913;82;25885;-78
2020/12/10 09:13:15;;;;;;;60.08;32.73;;;;;;;-0.34;77.99;100334.70;1695439;83;26058;-78
2020/12/10 09:15:45;;;;;;;65.87;36.33;;;;;;;-0.31;77.99;100330.52;1692545;83;25988;-77
2020/12/10 09:18:13;;;;;;;53.00;28.47;;;;;;;-0.24;77.58;100325.13;1701465;83;26212;-78
2020/12/10 09:20:45;;;;;;;53.50;27.77;;;;;;;-0.24;77.58;100325.13;1716109;82;27810;-77
2020/12/10 09:23:13;;;;;;;210.80;115.85;;;;;;;-0.22;77.95;100327.62;1688449;83;25830;-78
2020/12/10 09:25:41;;;;;;;64.47;33.85;;;;;;;-0.18;77.83;100327.72;1693449;82;26382;-78
2020/12/10 09:28:11;;;;;;;68.33;38.33;;;;;;;-0.18;77.81;100317.19;1677126;82;26256;-78
2020/12/10 09:30:40;;;;;;;68.62;38.00;;;;;;;-0.19;77.69;100317.66;1689755;83;25981;-78
2020/12/10 09:33:07;;;;;;;56.25;32.15;;;;;;;-0.18;77.70;100321.98;1671781;83;27343;-78
2020/12/10 09:35:40;;;;;;;44.58;29.85;;;;;;;-0.15;77.76;100307.74;1657965;83;25933;-78
2020/12/10 09:38:11;;;;;;;40.45;23.52;;;;;;;-0.17;77.52;100312.30;1716040;81;25735;-77
2020/12/10 09:40:43;;;;;;;49.42;26.75;;;;;;;-0.21;77.52;100307.74;1716068;81;25807;-77
2020/12/10 09:43:12;;;;;;;43.30;23.77;;;;;;;-0.21;77.61;100300.32;1712232;81;25782;-77
2020/12/10 09:45:40;;;;;;;40.33;20.95;;;;;;;-0.20;77.62;100300.69;1753348;81;27701;-78
2020/12/10 09:48:08;;;;;;;46.50;23.12;;;;;;;-0.22;77.60;100296.88;1694255;81;26062;-77
2020/12/10 09:50:38;;;;;;;46.08;21.20;;;;;;;-0.20;77.86;100294.11;1721776;81;25822;-77
2020/12/10 09:53:15;;;;;;;41.77;22.65;;;;;;;-0.19;77.60;100284.77;1695625;81;25792;-77
2020/12/10 09:58:31;;;;;;;38.63;21.02;;;;;;;-0.17;77.55;100272.31;1711666;81;27517;-77
2020/12/10 10:00:59;;;;;;;42.62;27.52;;;;;;;-0.16;77.63;100268.73;1737673;81;26361;-77
2020/12/10 10:03:33;;;;;;;34.50;17.67;;;;;;;-0.16;77.90;100253.41;1706505;81;25459;-77
2020/12/10 10:06:05;;;;;;;33.55;19.90;;;;;;;-0.16;77.90;100253.41;1711854;81;25912;-77
2020/12/10 10:08:36;;;;;;;39.08;23.57;;;;;;;-0.13;77.63;100257.93;1711786;81;26054;-78
2020/12/10 10:11:05;;;;;;;34.67;21.07;;;;;;;-0.09;77.76;100253.27;1722879;81;27545;-77
2020/12/10 10:13:35;;;;;;;37.42;22.37;;;;;;;-0.05;77.81;100251.57;1736486;81;26446;-77
2020/12/10 10:16:02;;;;;;;35.48;20.12;;;;;;;-0.01;77.71;100248.19;1719497;80;25874;-77
2020/12/10 10:18:38;;;;;;;44.10;23.20;;;;;;;0.02;77.71;100241.36;1655906;83;26260;-77
2020/12/10 10:21:07;;;;;;;43.58;20.57;;;;;;;0.04;77.65;100241.23;1745101;81;26368;-77
2020/12/10 10:23:37;;;;;;;50.98;30.32;;;;;;;0.06;77.56;100232.72;1686556;81;27281;-77
2020/12/10 10:26:08;;;;;;;40.28;21.25;;;;;;;0.10;77.63;100229.70;1704727;82;26144;-77
2020/12/10 10:28:39;;;;;;;46.77;22.50;;;;;;;0.13;77.52;100232.05;1712712;81;25749;-77
2020/12/10 10:31:13;;;;;;;39.50;22.95;;;;;;;0.15;77.53;100224.05;1723615;82;25838;-77
2020/12/10 10:33:41;;;;;;;37.48;19.92;;;;;;;0.13;77.42;100221.52;1705071;82;26356;-77
2020/12/10 10:36:10;;;;;;;38.05;20.60;;;;;;;0.15;77.54;100230.63;1696006;82;27539;-77
2020/12/10 10:38:40;;;;;;;38.17;19.37;;;;;;;0.16;77.56;100221.27;1708986;82;25723;-76
2020/12/10 10:41:08;;;;;;;44.33;23.55;;;;;;;0.17;77.51;100217.66;1690614;83;25802;-77
2020/12/10 10:43:40;;;;;;;34.88;20.05;;;;;;;0.18;77.57;100214.55;1681858;83;26054;-76
2020/12/10 10:46:07;;;;;;;39.10;18.45;;;;;;;0.18;77.58;100214.55;1708193;81;25896;-77
2020/12/10 10:48:35;;;;;;;38.55;17.20;;;;;;;0.19;77.67;100209.17;1711124;81;27638;-77
2020/12/10 10:51:05;;;;;;;37.33;19.07;;;;;;;0.18;77.72;100207.49;1745384;81;25911;-77
2020/12/10 10:53:36;;;;;;;40.83;20.05;;;;;;;0.20;77.83;100206.87;1693476;82;25942;-77
2020/12/10 10:56:03;;;;;;;34.70;18.98;;;;;;;0.18;77.88;100211.44;1705733;82;26605;-78
2020/12/10 10:58:31;;;;;;;37.93;19.35;;;;;;;0.17;77.94;100206.31;1705907;81;26493;-78
2020/12/10 11:01:01;;;;;;;43.25;22.58;;;;;;;0.16;78.07;100201.52;1697667;82;28404;-77
2020/12/10 11:03:28;;;;;;;36.33;20.62;;;;;;;0.18;78.18;100196.95;1670011;83;25695;-78
2020/12/10 11:05:55;;;;;;;43.10;24.40;;;;;;;0.20;78.26;100196.82;1671027;84;26013;-77
2020/12/10 11:08:29;;;;;;;34.10;17.98;;;;;;;0.23;78.34;100191.30;1678577;83;25736;-76
2020/12/10 11:10:58;;;;;;;41.25;22.30;;;;;;;0.24;78.48;100185.89;1705308;82;26303;-77
2020/12/10 11:13:32;;;;;;;41.02;22.17;;;;;;;0.26;78.46;100189.70;1696697;82;27303;-77
2020/12/10 11:16:01;;;;;;;37.10;20.48;;;;;;;0.29;78.67;100182.39;1698639;82;25790;-77
2020/12/10 11:18:28;;;;;;;37.42;20.17;;;;;;;0.33;78.65;100182.95;1699963;82;25806;-77
2020/12/10 11:20:58;;;;;;;51.05;27.75;;;;;;;0.32;78.60;100178.16;1696019;82;25917;-77
2020/12/10 11:23:28;;;;;;;43.17;24.63;;;;;;;0.31;78.80;100184.41;1724492;82;25805;-77
2020/12/10 11:25:57;;;;;;;46.53;26.85;;;;;;;0.34;78.85;100180.69;1711627;81;27529;-77
2020/12/10 11:28:24;;;;;;;50.40;28.90;;;;;;;0.37;78.94;100188.30;1718911;81;25918;-77
2020/12/10 11:30:53;;;;;;;64.00;35.25;;;;;;;0.35;79.00;100189.77;1695442;81;26644;-77
2020/12/10 11:33:21;;;;;;;45.45;21.20;;;;;;;0.37;79.16;100184.36;1720291;81;25880;-77